sensor_id;sensor_type;location;lat;lon;timestamp;temperature;humidity
71514;DHT22;59335;46.652;21.272;2023-02-14T00:00:32;21.78;29.63
71514;DHT22;59335;46.652;21.272;2023-02-14T00:03:35;21.74;29.60
71514;DHT22;59335;46.652;21.272;2023-02-14T00:06:38;21.77;29.66
71514;DHT22;59335;46.652;21.272;2023-02-14T00:09:42;21.77;29.61
71514;DHT22;59335;46.652;21.272;2023-02-14T00:12:44;21.79;29.58
71514;DHT22;59335;46.652;21.272;2023-02-14T00:15:47;21.79;29.60
71514;DHT22;59335;46.652;21.272;2023-02-14T00:18:50;21.77;29.49
71514;DHT22;59335;46.652;21.272;2023-02-14T00:22:06;21.75;29.53
71514;DHT22;59335;46.652;21.272;2023-02-14T00:25:09;21.75;29.47
71514;DHT22;59335;46.652;21.272;2023-02-14T00:28:12;21.78;29.46
71514;DHT22;59335;46.652;21.272;2023-02-14T00:31:14;21.75;29.52
71514;DHT22;59335;46.652;21.272;2023-02-14T00:34:18;21.77;29.48
71514;DHT22;59335;46.652;21.272;2023-02-14T00:37:21;21.79;29.46
71514;DHT22;59335;46.652;21.272;2023-02-14T00:40:27;21.78;29.48
71514;DHT22;59335;46.652;21.272;2023-02-14T00:43:31;21.78;29.37
71514;DHT22;59335;46.652;21.272;2023-02-14T00:46:35;21.78;29.43
71514;DHT22;59335;46.652;21.272;2023-02-14T00:49:38;21.77;29.41
71514;DHT22;59335;46.652;21.272;2023-02-14T00:52:41;21.75;29.36
71514;DHT22;59335;46.652;21.272;2023-02-14T00:55:44;21.74;29.37
71514;DHT22;59335;46.652;21.272;2023-02-14T00:58:49;21.77;29.31
71514;DHT22;59335;46.652;21.272;2023-02-14T01:01:52;21.78;29.29
71514;DHT22;59335;46.652;21.272;2023-02-14T01:04:55;21.75;29.35
71514;DHT22;59335;46.652;21.272;2023-02-14T01:07:58;21.74;29.28
71514;DHT22;59335;46.652;21.272;2023-02-14T01:11:15;21.77;29.26
71514;DHT22;59335;46.652;21.272;2023-02-14T01:14:20;21.78;29.26
71514;DHT22;59335;46.652;21.272;2023-02-14T01:17:24;21.77;29.23
71514;DHT22;59335;46.652;21.272;2023-02-14T01:20:27;21.77;29.23
71514;DHT22;59335;46.652;21.272;2023-02-14T01:23:30;21.77;29.25
71514;DHT22;59335;46.652;21.272;2023-02-14T01:26:34;21.71;29.27
71514;DHT22;59335;46.652;21.272;2023-02-14T01:29:37;21.71;29.32
71514;DHT22;59335;46.652;21.272;2023-02-14T01:32:40;21.75;29.24
71514;DHT22;59335;46.652;21.272;2023-02-14T01:35:43;21.75;29.25
71514;DHT22;59335;46.652;21.272;2023-02-14T01:38:46;21.75;29.29
71514;DHT22;59335;46.652;21.272;2023-02-14T01:41:49;21.74;29.19
71514;DHT22;59335;46.652;21.272;2023-02-14T01:45:08;21.75;29.20
71514;DHT22;59335;46.652;21.272;2023-02-14T01:48:12;21.72;29.20
71514;DHT22;59335;46.652;21.272;2023-02-14T01:51:17;21.75;29.16
71514;DHT22;59335;46.652;21.272;2023-02-14T01:54:23;21.77;29.17
71514;DHT22;59335;46.652;21.272;2023-02-14T01:57:32;21.75;29.11
71514;DHT22;59335;46.652;21.272;2023-02-14T02:00:37;21.75;29.14
71514;DHT22;59335;46.652;21.272;2023-02-14T02:04:08;21.78;29.05
71514;DHT22;59335;46.652;21.272;2023-02-14T02:07:18;21.77;29.05
71514;DHT22;59335;46.652;21.272;2023-02-14T02:10:22;21.74;29.05
71514;DHT22;59335;46.652;21.272;2023-02-14T02:13:24;21.68;29.05
71514;DHT22;59335;46.652;21.272;2023-02-14T02:43:10;21.71;28.94
71514;DHT22;59335;46.652;21.272;2023-02-14T02:46:26;21.72;28.93
71514;DHT22;59335;46.652;21.272;2023-02-14T02:53:41;21.74;28.80
71514;DHT22;59335;46.652;21.272;2023-02-14T02:56:53;21.68;28.85
71514;DHT22;59335;46.652;21.272;2023-02-14T02:59:58;21.68;28.82
71514;DHT22;59335;46.652;21.272;2023-02-14T03:03:04;21.72;28.82
71514;DHT22;59335;46.652;21.272;2023-02-14T03:06:29;21.74;28.84
71514;DHT22;59335;46.652;21.272;2023-02-14T03:23:24;21.69;28.74
71514;DHT22;59335;46.652;21.272;2023-02-14T03:26:50;21.71;28.73
71514;DHT22;59335;46.652;21.272;2023-02-14T03:30:23;21.69;28.70
71514;DHT22;59335;46.652;21.272;2023-02-14T03:37:16;21.71;28.66
71514;DHT22;59335;46.652;21.272;2023-02-14T03:40:30;21.66;28.70
71514;DHT22;59335;46.652;21.272;2023-02-14T03:43:38;21.71;28.71
71514;DHT22;59335;46.652;21.272;2023-02-14T03:46:50;21.69;28.64
71514;DHT22;59335;46.652;21.272;2023-02-14T03:49:57;21.68;28.61
71514;DHT22;59335;46.652;21.272;2023-02-14T03:53:02;21.66;28.61
71514;DHT22;59335;46.652;21.272;2023-02-14T03:56:28;21.68;28.55
71514;DHT22;59335;46.652;21.272;2023-02-14T03:59:34;21.66;28.53
71514;DHT22;59335;46.652;21.272;2023-02-14T04:02:41;21.71;28.55
71514;DHT22;59335;46.652;21.272;2023-02-14T04:05:45;21.72;28.48
71514;DHT22;59335;46.652;21.272;2023-02-14T04:08:53;21.69;28.47
71514;DHT22;59335;46.652;21.272;2023-02-14T04:11:56;21.69;28.55
71514;DHT22;59335;46.652;21.272;2023-02-14T04:14:59;21.72;28.44
71514;DHT22;59335;46.652;21.272;2023-02-14T04:18:05;21.69;28.41
71514;DHT22;59335;46.652;21.272;2023-02-14T04:21:26;21.71;28.38
71514;DHT22;59335;46.652;21.272;2023-02-14T04:24:29;21.69;28.39
71514;DHT22;59335;46.652;21.272;2023-02-14T04:27:32;21.69;28.38
71514;DHT22;59335;46.652;21.272;2023-02-14T04:30:34;21.69;28.34
71514;DHT22;59335;46.652;21.272;2023-02-14T04:33:37;21.68;28.30
71514;DHT22;59335;46.652;21.272;2023-02-14T04:36:40;21.72;28.29
71514;DHT22;59335;46.652;21.272;2023-02-14T04:39:43;21.69;28.32
71514;DHT22;59335;46.652;21.272;2023-02-14T04:42:46;21.68;28.32
71514;DHT22;59335;46.652;21.272;2023-02-14T04:45:48;21.71;28.25
71514;DHT22;59335;46.652;21.272;2023-02-14T04:48:51;21.66;28.27
71514;DHT22;59335;46.652;21.272;2023-02-14T04:51:55;21.69;28.21
71514;DHT22;59335;46.652;21.272;2023-02-14T04:54:57;21.66;28.25
71514;DHT22;59335;46.652;21.272;2023-02-14T04:58:00;21.63;28.26
71514;DHT22;59335;46.652;21.272;2023-02-14T05:01:03;21.66;28.20
71514;DHT22;59335;46.652;21.272;2023-02-14T05:04:05;21.68;28.14
71514;DHT22;59335;46.652;21.272;2023-02-14T05:07:08;21.63;28.21
71514;DHT22;59335;46.652;21.272;2023-02-14T05:10:11;21.66;28.18
71514;DHT22;59335;46.652;21.272;2023-02-14T05:13:14;21.68;28.11
71514;DHT22;59335;46.652;21.272;2023-02-14T05:16:16;21.63;28.17
71514;DHT22;59335;46.652;21.272;2023-02-14T05:19:19;21.66;28.21
71514;DHT22;59335;46.652;21.272;2023-02-14T05:22:22;21.65;28.18
71514;DHT22;59335;46.652;21.272;2023-02-14T05:25:25;21.66;28.11
71514;DHT22;59335;46.652;21.272;2023-02-14T05:28:28;21.66;28.12
71514;DHT22;59335;46.652;21.272;2023-02-14T05:31:31;21.69;28.12
71514;DHT22;59335;46.652;21.272;2023-02-14T05:34:34;21.63;28.04
71514;DHT22;59335;46.652;21.272;2023-02-14T05:37:37;21.68;28.06
71514;DHT22;59335;46.652;21.272;2023-02-14T05:40:41;21.61;28.14
71514;DHT22;59335;46.652;21.272;2023-02-14T05:43:44;21.65;28.10
71514;DHT22;59335;46.652;21.272;2023-02-14T05:46:48;21.62;28.06
71514;DHT22;59335;46.652;21.272;2023-02-14T05:49:50;21.68;28.09
71514;DHT22;59335;46.652;21.272;2023-02-14T05:52:54;21.63;28.12
71514;DHT22;59335;46.652;21.272;2023-02-14T05:55:57;21.65;28.07
71514;DHT22;59335;46.652;21.272;2023-02-14T05:58:59;21.65;28.06
71514;DHT22;59335;46.652;21.272;2023-02-14T06:02:02;21.66;28.04
71514;DHT22;59335;46.652;21.272;2023-02-14T06:05:05;21.69;28.06
71514;DHT22;59335;46.652;21.272;2023-02-14T06:08:08;21.69;28.08
71514;DHT22;59335;46.652;21.272;2023-02-14T06:11:11;21.63;28.21
71514;DHT22;59335;46.652;21.272;2023-02-14T06:14:13;21.63;28.39
71514;DHT22;59335;46.652;21.272;2023-02-14T06:17:16;21.72;28.40
71514;DHT22;59335;46.652;21.272;2023-02-14T06:20:20;21.72;28.37
71514;DHT22;59335;46.652;21.272;2023-02-14T06:23:23;21.75;28.85
71514;DHT22;59335;46.652;21.272;2023-02-14T06:26:27;21.82;28.77
71514;DHT22;59335;46.652;21.272;2023-02-14T06:29:30;21.86;28.92
71514;DHT22;59335;46.652;21.272;2023-02-14T06:32:33;21.86;29.01
71514;DHT22;59335;46.652;21.272;2023-02-14T06:35:35;21.89;29.00
71514;DHT22;59335;46.652;21.272;2023-02-14T06:38:42;21.93;29.09
71514;DHT22;59335;46.652;21.272;2023-02-14T06:41:50;21.96;29.13
71514;DHT22;59335;46.652;21.272;2023-02-14T06:44:53;22.00;29.55
71514;DHT22;59335;46.652;21.272;2023-02-14T06:47:56;22.03;29.84
71514;DHT22;59335;46.652;21.272;2023-02-14T06:50:59;22.05;30.25
71514;DHT22;59335;46.652;21.272;2023-02-14T06:54:02;22.07;31.06
71514;DHT22;59335;46.652;21.272;2023-02-14T06:57:05;22.10;30.74
71514;DHT22;59335;46.652;21.272;2023-02-14T07:00:08;22.13;30.61
71514;DHT22;59335;46.652;21.272;2023-02-14T07:03:12;22.19;30.93
71514;DHT22;59335;46.652;21.272;2023-02-14T07:06:19;22.17;30.88
71514;DHT22;59335;46.652;21.272;2023-02-14T07:09:22;22.20;30.73
71514;DHT22;59335;46.652;21.272;2023-02-14T07:12:31;22.20;30.90
71514;DHT22;59335;46.652;21.272;2023-02-14T07:16:13;22.21;30.86
71514;DHT22;59335;46.652;21.272;2023-02-14T07:19:21;22.24;30.84
71514;DHT22;59335;46.652;21.272;2023-02-14T07:22:24;22.26;30.83
71514;DHT22;59335;46.652;21.272;2023-02-14T07:25:26;22.30;30.90
71514;DHT22;59335;46.652;21.272;2023-02-14T07:28:30;22.30;30.86
71514;DHT22;59335;46.652;21.272;2023-02-14T07:31:35;22.32;30.87
71514;DHT22;59335;46.652;21.272;2023-02-14T07:34:39;22.30;30.94
71514;DHT22;59335;46.652;21.272;2023-02-14T07:37:57;22.33;31.02
71514;DHT22;59335;46.652;21.272;2023-02-14T07:41:09;22.24;31.50
71514;DHT22;59335;46.652;21.272;2023-02-14T07:44:50;22.32;31.32
71514;DHT22;59335;46.652;21.272;2023-02-14T07:47:56;22.33;31.22
71514;DHT22;59335;46.652;21.272;2023-02-14T07:51:03;22.34;31.53
71514;DHT22;59335;46.652;21.272;2023-02-14T07:54:06;22.26;32.31
71514;DHT22;59335;46.652;21.272;2023-02-14T07:57:09;22.34;32.15
71514;DHT22;59335;46.652;21.272;2023-02-14T08:00:12;22.40;32.22
71514;DHT22;59335;46.652;21.272;2023-02-14T08:03:17;22.40;32.56
71514;DHT22;59335;46.652;21.272;2023-02-14T08:06:20;22.40;32.50
71514;DHT22;59335;46.652;21.272;2023-02-14T08:09:23;22.43;32.33
71514;DHT22;59335;46.652;21.272;2023-02-14T08:12:26;22.41;32.29
71514;DHT22;59335;46.652;21.272;2023-02-14T08:15:47;22.46;32.47
71514;DHT22;59335;46.652;21.272;2023-02-14T08:19:06;22.46;32.24
71514;DHT22;59335;46.652;21.272;2023-02-14T08:22:09;22.43;32.15
71514;DHT22;59335;46.652;21.272;2023-02-14T08:25:14;22.41;32.39
71514;DHT22;59335;46.652;21.272;2023-02-14T08:28:18;22.44;32.35
71514;DHT22;59335;46.652;21.272;2023-02-14T08:31:26;22.46;32.32
71514;DHT22;59335;46.652;21.272;2023-02-14T08:34:37;22.46;32.36
71514;DHT22;59335;46.652;21.272;2023-02-14T08:37:40;22.46;32.38
71514;DHT22;59335;46.652;21.272;2023-02-14T08:40:43;22.50;32.35
71514;DHT22;59335;46.652;21.272;2023-02-14T08:43:46;22.53;32.43
71514;DHT22;59335;46.652;21.272;2023-02-14T08:46:49;22.50;32.52
71514;DHT22;59335;46.652;21.272;2023-02-14T08:50:02;22.50;32.53
71514;DHT22;59335;46.652;21.272;2023-02-14T08:53:10;22.53;32.90
71514;DHT22;59335;46.652;21.272;2023-02-14T08:56:14;22.57;33.65
71514;DHT22;59335;46.652;21.272;2023-02-14T08:59:17;22.55;33.71
71514;DHT22;59335;46.652;21.272;2023-02-14T09:02:21;22.53;33.74
71514;DHT22;59335;46.652;21.272;2023-02-14T09:05:24;22.54;33.56
71514;DHT22;59335;46.652;21.272;2023-02-14T09:08:30;22.55;33.43
71514;DHT22;59335;46.652;21.272;2023-02-14T09:11:33;22.50;33.40
71514;DHT22;59335;46.652;21.272;2023-02-14T09:14:39;22.51;33.34
71514;DHT22;59335;46.652;21.272;2023-02-14T09:17:43;22.51;33.20
71514;DHT22;59335;46.652;21.272;2023-02-14T09:20:45;22.50;33.34
71514;DHT22;59335;46.652;21.272;2023-02-14T09:23:50;22.50;33.29
71514;DHT22;59335;46.652;21.272;2023-02-14T09:26:54;22.50;33.12
71514;DHT22;59335;46.652;21.272;2023-02-14T09:29:59;22.48;33.17
71514;DHT22;59335;46.652;21.272;2023-02-14T09:33:02;22.51;33.10
71514;DHT22;59335;46.652;21.272;2023-02-14T09:36:08;22.50;33.17
71514;DHT22;59335;46.652;21.272;2023-02-14T09:39:29;22.51;33.43
71514;DHT22;59335;46.652;21.272;2023-02-14T09:42:52;22.50;33.49
71514;DHT22;59335;46.652;21.272;2023-02-14T09:45:57;22.53;33.34
71514;DHT22;59335;46.652;21.272;2023-02-14T09:49:03;22.48;33.62
71514;DHT22;59335;46.652;21.272;2023-02-14T09:52:11;22.50;33.99
71514;DHT22;59335;46.652;21.272;2023-02-14T09:55:17;22.55;34.34
71514;DHT22;59335;46.652;21.272;2023-02-14T09:58:24;22.61;34.35
71514;DHT22;59335;46.652;21.272;2023-02-14T10:01:41;22.64;34.45
71514;DHT22;59335;46.652;21.272;2023-02-14T10:08:04;22.69;34.73
71514;DHT22;59335;46.652;21.272;2023-02-14T10:11:17;22.67;34.48
71514;DHT22;59335;46.652;21.272;2023-02-14T10:14:31;22.68;34.48
71514;DHT22;59335;46.652;21.272;2023-02-14T10:17:44;22.68;34.44
71514;DHT22;59335;46.652;21.272;2023-02-14T10:20:58;22.69;34.27
71514;DHT22;59335;46.652;21.272;2023-02-14T10:24:13;22.67;34.23
71514;DHT22;59335;46.652;21.272;2023-02-14T10:27:33;22.68;34.20
71514;DHT22;59335;46.652;21.272;2023-02-14T10:30:39;22.65;34.11
71514;DHT22;59335;46.652;21.272;2023-02-14T10:45:52;22.63;34.21
71514;DHT22;59335;46.652;21.272;2023-02-14T10:55:50;22.65;34.71
71514;DHT22;59335;46.652;21.272;2023-02-14T10:58:55;22.64;34.94
71514;DHT22;59335;46.652;21.272;2023-02-14T11:02:01;22.69;35.00
71514;DHT22;59335;46.652;21.272;2023-02-14T11:05:04;22.72;35.27
71514;DHT22;59335;46.652;21.272;2023-02-14T11:14:42;22.72;35.22
71514;DHT22;59335;46.652;21.272;2023-02-14T11:17:45;22.75;35.35
71514;DHT22;59335;46.652;21.272;2023-02-14T11:20:59;22.75;35.35
71514;DHT22;59335;46.652;21.272;2023-02-14T11:24:16;22.75;35.39
71514;DHT22;59335;46.652;21.272;2023-02-14T11:27:19;22.75;35.58
71514;DHT22;59335;46.652;21.272;2023-02-14T11:30:35;22.81;35.61
71514;DHT22;59335;46.652;21.272;2023-02-14T11:33:42;22.74;35.48
71514;DHT22;59335;46.652;21.272;2023-02-14T11:36:45;22.78;35.46
71514;DHT22;59335;46.652;21.272;2023-02-14T11:39:49;22.76;35.68
71514;DHT22;59335;46.652;21.272;2023-02-14T11:43:46;22.75;35.60
71514;DHT22;59335;46.652;21.272;2023-02-14T11:46:26;22.78;35.42
71514;DHT22;59335;46.652;21.272;2023-02-14T11:49:32;22.76;35.40
71514;DHT22;59335;46.652;21.272;2023-02-14T11:52:49;22.78;35.64
71514;DHT22;59335;46.652;21.272;2023-02-14T11:55:55;22.81;35.99
71514;DHT22;59335;46.652;21.272;2023-02-14T11:59:03;22.78;36.42
71514;DHT22;59335;46.652;21.272;2023-02-14T12:02:35;22.81;36.13
71514;DHT22;59335;46.652;21.272;2023-02-14T12:05:46;22.82;36.38
71514;DHT22;59335;46.652;21.272;2023-02-14T12:09:10;22.85;36.18
71514;DHT22;59335;46.652;21.272;2023-02-14T12:12:22;22.82;36.22
71514;DHT22;59335;46.652;21.272;2023-02-14T12:18:46;22.81;36.16
71514;DHT22;59335;46.652;21.272;2023-02-14T12:21:57;22.82;35.95
71514;DHT22;59335;46.652;21.272;2023-02-14T12:28:21;22.84;35.98
71514;DHT22;59335;46.652;21.272;2023-02-14T12:31:28;22.84;35.92
71514;DHT22;59335;46.652;21.272;2023-02-14T12:34:32;22.88;35.88
71514;DHT22;59335;46.652;21.272;2023-02-14T12:41:07;22.85;35.96
71514;DHT22;59335;46.652;21.272;2023-02-14T12:51:25;22.87;36.08
71514;DHT22;59335;46.652;21.272;2023-02-14T12:54:51;22.82;36.12
71514;DHT22;59335;46.652;21.272;2023-02-14T13:01:58;22.84;36.06
71514;DHT22;59335;46.652;21.272;2023-02-14T13:12:27;22.79;35.97
71514;DHT22;59335;46.652;21.272;2023-02-14T13:15:43;22.81;35.86
71514;DHT22;59335;46.652;21.272;2023-02-14T13:22:21;22.81;35.62
71514;DHT22;59335;46.652;21.272;2023-02-14T13:25:30;22.82;35.54
71514;DHT22;59335;46.652;21.272;2023-02-14T13:28:36;22.85;35.67
71514;DHT22;59335;46.652;21.272;2023-02-14T13:31:40;22.79;35.48
71514;DHT22;59335;46.652;21.272;2023-02-14T13:34:45;22.75;35.67
71514;DHT22;59335;46.652;21.272;2023-02-14T13:37:54;22.75;35.59
71514;DHT22;59335;46.652;21.272;2023-02-14T13:41:01;22.75;35.76
71514;DHT22;59335;46.652;21.272;2023-02-14T13:44:06;22.76;35.58
71514;DHT22;59335;46.652;21.272;2023-02-14T13:47:22;22.75;35.59
71514;DHT22;59335;46.652;21.272;2023-02-14T13:50:26;22.74;35.55
71514;DHT22;59335;46.652;21.272;2023-02-14T13:56:33;22.72;35.48
71514;DHT22;59335;46.652;21.272;2023-02-14T13:59:36;22.68;35.46
71514;DHT22;59335;46.652;21.272;2023-02-14T14:02:47;22.69;35.31
71514;DHT22;59335;46.652;21.272;2023-02-14T14:09:08;22.72;35.42
71514;DHT22;59335;46.652;21.272;2023-02-14T14:15:31;22.68;35.21
71514;DHT22;59335;46.652;21.272;2023-02-14T14:18:37;22.65;35.16
71514;DHT22;59335;46.652;21.272;2023-02-14T14:22:05;22.64;34.81
71514;DHT22;59335;46.652;21.272;2023-02-14T14:25:09;22.64;35.08
71514;DHT22;59335;46.652;21.272;2023-02-14T14:28:21;22.60;35.13
71514;DHT22;59335;46.652;21.272;2023-02-14T14:31:27;22.63;35.20
71514;DHT22;59335;46.652;21.272;2023-02-14T14:34:31;22.60;34.85
71514;DHT22;59335;46.652;21.272;2023-02-14T14:37:39;22.61;35.07
71514;DHT22;59335;46.652;21.272;2023-02-14T14:40:48;22.58;34.89
71514;DHT22;59335;46.652;21.272;2023-02-14T14:43:53;22.60;34.98
71514;DHT22;59335;46.652;21.272;2023-02-14T14:46:58;22.57;34.70
71514;DHT22;59335;46.652;21.272;2023-02-14T14:50:07;22.55;34.80
71514;DHT22;59335;46.652;21.272;2023-02-14T14:53:25;22.54;34.95
71514;DHT22;59335;46.652;21.272;2023-02-14T14:56:33;22.53;34.87
71514;DHT22;59335;46.652;21.272;2023-02-14T14:59:37;22.53;34.87
71514;DHT22;59335;46.652;21.272;2023-02-14T15:02:41;22.51;34.74
71514;DHT22;59335;46.652;21.272;2023-02-14T15:05:46;22.51;34.48
71514;DHT22;59335;46.652;21.272;2023-02-14T15:08:49;22.48;34.31
71514;DHT22;59335;46.652;21.272;2023-02-14T15:11:53;22.43;34.42
71514;DHT22;59335;46.652;21.272;2023-02-14T15:15:15;22.43;34.33
71514;DHT22;59335;46.652;21.272;2023-02-14T15:18:20;22.43;34.11
71514;DHT22;59335;46.652;21.272;2023-02-14T15:21:23;22.40;34.08
71514;DHT22;59335;46.652;21.272;2023-02-14T15:24:27;22.39;34.03
71514;DHT22;59335;46.652;21.272;2023-02-14T15:27:32;22.41;34.02
71514;DHT22;59335;46.652;21.272;2023-02-14T15:30:36;22.39;33.94
71514;DHT22;59335;46.652;21.272;2023-02-14T15:33:41;22.40;33.80
71514;DHT22;59335;46.652;21.272;2023-02-14T15:36:44;22.37;33.74
71514;DHT22;59335;46.652;21.272;2023-02-14T15:39:52;22.37;33.52
71514;DHT22;59335;46.652;21.272;2023-02-14T15:49:36;22.36;33.23
71514;DHT22;59335;46.652;21.272;2023-02-14T15:52:44;22.27;33.32
71514;DHT22;59335;46.652;21.272;2023-02-14T15:55:48;22.33;33.31
71514;DHT22;59335;46.652;21.272;2023-02-14T15:59:03;22.32;33.40
71514;DHT22;59335;46.652;21.272;2023-02-14T16:05:32;22.30;33.23
71514;DHT22;59335;46.652;21.272;2023-02-14T16:08:39;22.30;33.21
71514;DHT22;59335;46.652;21.272;2023-02-14T16:11:44;22.32;33.15
71514;DHT22;59335;46.652;21.272;2023-02-14T16:15:00;22.29;33.23
71514;DHT22;59335;46.652;21.272;2023-02-14T16:18:17;22.29;33.21
71514;DHT22;59335;46.652;21.272;2023-02-14T16:21:30;22.26;33.11
71514;DHT22;59335;46.652;21.272;2023-02-14T16:24:34;22.23;33.05
71514;DHT22;59335;46.652;21.272;2023-02-14T16:27:39;22.24;33.00
71514;DHT22;59335;46.652;21.272;2023-02-14T16:30:44;22.26;33.02
71514;DHT22;59335;46.652;21.272;2023-02-14T16:33:48;22.21;33.24
71514;DHT22;59335;46.652;21.272;2023-02-14T16:36:51;22.23;33.25
71514;DHT22;59335;46.652;21.272;2023-02-14T16:39:59;22.23;33.15
71514;DHT22;59335;46.652;21.272;2023-02-14T16:43:02;22.23;33.21
71514;DHT22;59335;46.652;21.272;2023-02-14T16:46:10;22.23;33.22
71514;DHT22;59335;46.652;21.272;2023-02-14T16:49:14;22.21;33.16
71514;DHT22;59335;46.652;21.272;2023-02-14T16:52:20;22.24;33.15
71514;DHT22;59335;46.652;21.272;2023-02-14T16:55:25;22.23;33.13
71514;DHT22;59335;46.652;21.272;2023-02-14T16:58:33;22.23;33.19
71514;DHT22;59335;46.652;21.272;2023-02-14T17:01:38;22.23;33.21
71514;DHT22;59335;46.652;21.272;2023-02-14T17:04:41;22.23;33.21
71514;DHT22;59335;46.652;21.272;2023-02-14T17:07:45;22.20;33.24
71514;DHT22;59335;46.652;21.272;2023-02-14T17:10:49;22.21;33.16
71514;DHT22;59335;46.652;21.272;2023-02-14T17:13:53;22.20;33.09
71514;DHT22;59335;46.652;21.272;2023-02-14T17:16:58;22.23;33.06
71514;DHT22;59335;46.652;21.272;2023-02-14T17:20:03;22.24;33.27
71514;DHT22;59335;46.652;21.272;2023-02-14T17:23:08;22.23;33.42
71514;DHT22;59335;46.652;21.272;2023-02-14T17:26:12;22.23;33.30
71514;DHT22;59335;46.652;21.272;2023-02-14T17:29:16;22.23;33.27
71514;DHT22;59335;46.652;21.272;2023-02-14T17:32:20;22.19;33.21
71514;DHT22;59335;46.652;21.272;2023-02-14T17:35:23;22.21;33.12
71514;DHT22;59335;46.652;21.272;2023-02-14T17:38:27;22.23;33.10
71514;DHT22;59335;46.652;21.272;2023-02-14T17:41:33;22.20;33.01
71514;DHT22;59335;46.652;21.272;2023-02-14T17:44:37;22.21;32.96
71514;DHT22;59335;46.652;21.272;2023-02-14T17:47:41;22.23;32.93
71514;DHT22;59335;46.652;21.272;2023-02-14T17:50:47;22.21;32.93
71514;DHT22;59335;46.652;21.272;2023-02-14T17:53:52;22.20;32.89
71514;DHT22;59335;46.652;21.272;2023-02-14T17:56:56;22.23;32.85
71514;DHT22;59335;46.652;21.272;2023-02-14T18:00:02;22.19;32.84
71514;DHT22;59335;46.652;21.272;2023-02-14T18:03:15;22.21;32.84
71514;DHT22;59335;46.652;21.272;2023-02-14T18:06:21;22.17;32.80
71514;DHT22;59335;46.652;21.272;2023-02-14T18:09:28;22.19;32.81
71514;DHT22;59335;46.652;21.272;2023-02-14T18:12:32;22.20;32.78
71514;DHT22;59335;46.652;21.272;2023-02-14T18:15:37;22.20;32.73
71514;DHT22;59335;46.652;21.272;2023-02-14T18:18:44;22.17;32.63
71514;DHT22;59335;46.652;21.272;2023-02-14T18:21:49;22.17;32.67
71514;DHT22;59335;46.652;21.272;2023-02-14T18:24:54;22.20;32.62
71514;DHT22;59335;46.652;21.272;2023-02-14T18:28:02;22.19;32.60
71514;DHT22;59335;46.652;21.272;2023-02-14T18:31:12;22.17;32.63
71514;DHT22;59335;46.652;21.272;2023-02-14T18:34:17;22.16;32.61
71514;DHT22;59335;46.652;21.272;2023-02-14T18:37:22;22.17;32.61
71514;DHT22;59335;46.652;21.272;2023-02-14T18:40:27;22.19;32.58
71514;DHT22;59335;46.652;21.272;2023-02-14T18:43:32;22.20;32.51
71514;DHT22;59335;46.652;21.272;2023-02-14T18:46:36;22.19;32.49
71514;DHT22;59335;46.652;21.272;2023-02-14T18:49:40;22.17;32.42
71514;DHT22;59335;46.652;21.272;2023-02-14T18:52:44;22.17;32.45
71514;DHT22;59335;46.652;21.272;2023-02-14T18:55:49;22.16;32.46
71514;DHT22;59335;46.652;21.272;2023-02-14T18:58:56;22.16;32.45
71514;DHT22;59335;46.652;21.272;2023-02-14T19:02:00;22.17;32.37
71514;DHT22;59335;46.652;21.272;2023-02-14T19:05:08;22.17;32.33
71514;DHT22;59335;46.652;21.272;2023-02-14T19:08:13;22.16;32.31
71514;DHT22;59335;46.652;21.272;2023-02-14T19:11:20;22.17;32.28
71514;DHT22;59335;46.652;21.272;2023-02-14T19:14:25;22.14;32.26
71514;DHT22;59335;46.652;21.272;2023-02-14T19:17:30;22.19;32.28
71514;DHT22;59335;46.652;21.272;2023-02-14T19:20:40;22.19;32.27
71514;DHT22;59335;46.652;21.272;2023-02-14T19:23:45;22.16;32.18
71514;DHT22;59335;46.652;21.272;2023-02-14T19:26:51;22.17;32.15
71514;DHT22;59335;46.652;21.272;2023-02-14T19:29:55;22.14;32.20
71514;DHT22;59335;46.652;21.272;2023-02-14T19:33:01;22.16;32.11
71514;DHT22;59335;46.652;21.272;2023-02-14T19:36:07;22.14;32.08
71514;DHT22;59335;46.652;21.272;2023-02-14T19:39:13;22.16;32.05
71514;DHT22;59335;46.652;21.272;2023-02-14T19:42:18;22.14;32.09
71514;DHT22;59335;46.652;21.272;2023-02-14T19:45:22;22.16;32.02
71514;DHT22;59335;46.652;21.272;2023-02-14T19:48:31;22.16;32.03
71514;DHT22;59335;46.652;21.272;2023-02-14T19:51:35;22.16;31.99
71514;DHT22;59335;46.652;21.272;2023-02-14T19:54:41;22.16;32.02
71514;DHT22;59335;46.652;21.272;2023-02-14T19:57:45;22.17;32.05
71514;DHT22;59335;46.652;21.272;2023-02-14T20:00:57;22.14;31.99
71514;DHT22;59335;46.652;21.272;2023-02-14T20:04:04;22.14;32.02
71514;DHT22;59335;46.652;21.272;2023-02-14T20:07:11;22.16;31.97
71514;DHT22;59335;46.652;21.272;2023-02-14T20:10:17;22.14;31.85
71514;DHT22;59335;46.652;21.272;2023-02-14T20:13:26;22.14;31.91
71514;DHT22;59335;46.652;21.272;2023-02-14T20:16:33;22.14;31.87
71514;DHT22;59335;46.652;21.272;2023-02-14T20:19:39;22.14;31.87
71514;DHT22;59335;46.652;21.272;2023-02-14T20:22:45;22.16;31.84
71514;DHT22;59335;46.652;21.272;2023-02-14T20:25:49;22.14;31.82
71514;DHT22;59335;46.652;21.272;2023-02-14T20:28:59;22.13;31.79
71514;DHT22;59335;46.652;21.272;2023-02-14T20:32:04;22.16;31.76
71514;DHT22;59335;46.652;21.272;2023-02-14T20:35:10;22.17;31.73
71514;DHT22;59335;46.652;21.272;2023-02-14T20:38:15;22.13;31.70
71514;DHT22;59335;46.652;21.272;2023-02-14T20:41:19;22.13;31.69
71514;DHT22;59335;46.652;21.272;2023-02-14T20:44:25;22.13;31.61
71514;DHT22;59335;46.652;21.272;2023-02-14T20:47:35;22.13;31.71
71514;DHT22;59335;46.652;21.272;2023-02-14T20:50:46;22.13;31.61
71514;DHT22;59335;46.652;21.272;2023-02-14T20:53:51;22.13;31.59
71514;DHT22;59335;46.652;21.272;2023-02-14T20:56:57;22.12;31.58
71514;DHT22;59335;46.652;21.272;2023-02-14T21:00:02;22.13;31.56
71514;DHT22;59335;46.652;21.272;2023-02-14T21:03:09;22.12;31.50
71514;DHT22;59335;46.652;21.272;2023-02-14T21:06:16;22.14;31.50
71514;DHT22;59335;46.652;21.272;2023-02-14T21:09:23;22.10;31.52
71514;DHT22;59335;46.652;21.272;2023-02-14T21:12:33;22.12;31.43
71514;DHT22;59335;46.652;21.272;2023-02-14T21:15:38;22.12;31.44
71514;DHT22;59335;46.652;21.272;2023-02-14T21:18:46;22.12;31.32
71514;DHT22;59335;46.652;21.272;2023-02-14T21:21:51;22.12;31.35
71514;DHT22;59335;46.652;21.272;2023-02-14T21:24:57;22.10;31.33
71514;DHT22;59335;46.652;21.272;2023-02-14T21:28:03;22.12;31.32